Time;durP1;ratioP1;P1;durP2;ratioP2;P2;SDS_P1;SDS_P2;PMS_P1;PMS_P2;Temp;Humidity;BMP_temperature;BMP_pressure;BME280_temperature;BME280_humidity;BME280_pressure;Samples;Min_cycle;Max_cycle;Signal;HPM_P1;HPM_P2
2023/11/12 00:02:24;;;;;;;2.50;2.30;;;;;;;9.89;100.00;99292.92;105418;1256;73905;-51
2023/11/12 00:04:54;;;;;;;2.30;2.10;;;;;;;9.89;100.00;99291.84;105369;1253;66331;-50
2023/11/12 00:07:22;;;;;;;3.00;2.80;;;;;;;9.90;100.00;99288.77;108708;1253;72675;-54
2023/11/12 00:09:50;;;;;;;2.30;1.70;;;;;;;9.89;100.00;99284.49;105405;1257;60496;-53
2023/11/12 00:12:19;;;;;;;2.40;2.10;;;;;;;9.88;100.00;99285.95;109096;1252;59993;-56
2023/11/12 00:14:46;;;;;;;2.10;1.50;;;;;;;9.88;100.00;99282.73;105570;1254;75238;-56
2023/11/12 00:17:16;;;;;;;2.40;2.20;;;;;;;9.88;100.00;99278.80;105370;1257;65799;-53
2023/11/12 00:19:43;;;;;;;2.60;2.20;;;;;;;9.86;100.00;99277.50;109003;1253;72749;-53
2023/11/12 00:22:12;;;;;;;2.20;2.00;;;;;;;9.84;100.00;99275.09;108915;1253;60449;-54
2023/11/12 00:24:39;;;;;;;1.90;1.80;;;;;;;9.84;100.00;99270.23;109087;1252;60085;-53
2023/11/12 00:27:07;;;;;;;2.50;2.30;;;;;;;9.85;100.00;99268.79;105289;1253;72652;-54
2023/11/12 00:29:34;;;;;;;4.70;3.30;;;;;;;9.84;100.00;99263.61;105305;1258;64663;-53
2023/11/12 00:32:03;;;;;;;2.30;2.00;;;;;;;9.84;100.00;99267.02;105295;1259;72797;-55
2023/11/12 00:34:31;;;;;;;3.90;3.50;;;;;;;9.85;100.00;99268.05;107297;1256;60766;-54
2023/11/12 00:36:58;;;;;;;5.70;3.30;;;;;;;9.86;100.00;99269.77;105370;1253;60374;-54
2023/11/12 00:39:26;;;;;;;3.90;3.50;;;;;;;9.87;100.00;99269.90;105451;1253;73436;-54
2023/11/12 00:41:54;;;;;;;2.60;2.40;;;;;;;9.86;100.00;99265.47;105364;1258;67436;-55
2023/11/12 00:44:24;;;;;;;3.10;2.80;;;;;;;9.86;100.00;99261.17;105328;1254;71419;-52
2023/11/12 00:46:51;;;;;;;4.00;3.70;;;;;;;9.84;100.00;99262.55;105562;1253;60546;-54
2023/11/12 00:49:19;;;;;;;3.20;2.90;;;;;;;9.83;100.00;99256.70;105475;1253;60524;-54
2023/11/12 00:51:46;;;;;;;2.80;2.60;;;;;;;9.82;100.00;99255.83;105383;1254;73366;-53
2023/11/12 00:54:14;;;;;;;4.90;3.10;;;;;;;9.82;100.00;99254.95;105458;1257;66185;-54
2023/11/12 00:56:41;;;;;;;3.10;2.30;;;;;;;9.82;100.00;99250.64;105449;1253;72434;-51
2023/11/12 00:59:08;;;;;;;6.10;2.30;;;;;;;9.81;100.00;99248.35;105381;1253;61588;-55
2023/11/12 01:01:36;;;;;;;2.70;1.70;;;;;;;9.81;100.00;99245.67;105430;1253;60905;-57
2023/11/12 01:04:04;;;;;;;2.50;2.30;;;;;;;9.80;100.00;99242.30;105416;1253;73898;-56
2023/11/12 01:06:33;;;;;;;1.90;1.70;;;;;;;9.79;100.00;99235.70;105585;1256;65506;-54
2023/11/12 01:09:01;;;;;;;1.40;1.10;;;;;;;9.80;100.00;99238.03;106143;1253;72651;-53
2023/11/12 01:11:28;;;;;;;3.10;1.50;;;;;;;9.80;100.00;99237.13;105392;1253;61730;-54
2023/11/12 01:13:56;;;;;;;1.80;1.60;;;;;;;9.80;100.00;99234.79;105360;1257;60450;-53
2023/11/12 01:16:23;;;;;;;1.70;1.30;;;;;;;9.79;100.00;99235.53;105305;1253;73797;-54
2023/11/12 01:18:51;;;;;;;1.60;1.50;;;;;;;9.78;100.00;99234.36;105402;1254;67167;-54
2023/11/12 01:21:18;;;;;;;8.70;1.00;;;;;;;9.79;100.00;99231.98;105460;1253;71265;-54
2023/11/12 01:23:46;;;;;;;1.20;1.10;;;;;;;9.79;100.00;99229.83;106359;1256;62560;-56
2023/11/12 01:26:14;;;;;;;1.80;1.20;;;;;;;9.76;100.00;99226.92;105409;1257;60522;-53
2023/11/12 01:28:42;;;;;;;1.70;0.70;;;;;;;9.76;100.00;99227.69;105396;1253;73851;-53
2023/11/12 01:31:09;;;;;;;1.30;0.80;;;;;;;9.75;100.00;99225.93;105391;1253;66473;-54
2023/11/12 01:33:37;;;;;;;1.00;0.80;;;;;;;9.74;100.00;99220.80;105321;1257;71277;-54
2023/11/12 01:36:05;;;;;;;0.80;0.60;;;;;;;9.73;100.00;99219.03;105268;1259;62572;-55
2023/11/12 01:38:33;;;;;;;1.10;0.50;;;;;;;9.72;100.00;99219.27;105906;1256;60438;-56
2023/11/12 01:41:03;;;;;;;2.90;0.70;;;;;;;9.71;100.00;99219.86;105302;1254;72648;-54
2023/11/12 01:43:31;;;;;;;0.70;0.60;;;;;;;9.69;100.00;99220.73;107877;1255;65735;-52
2023/11/12 01:46:00;;;;;;;0.90;0.60;;;;;;;9.68;100.00;99216.48;105398;1257;73179;-56
2023/11/12 01:48:27;;;;;;;0.70;0.60;;;;;;;9.67;100.00;99214.73;105495;1254;63308;-54
2023/11/12 01:50:54;;;;;;;0.60;0.60;;;;;;;9.66;100.00;99209.55;109082;1253;58463;-55
2023/11/12 01:53:22;;;;;;;0.60;0.50;;;;;;;9.65;100.00;99211.02;106718;1256;72888;-52
2023/11/12 01:55:49;;;;;;;0.70;0.60;;;;;;;9.65;100.00;99208.73;105523;1254;65767;-55
2023/11/12 01:58:17;;;;;;;0.50;0.40;;;;;;;9.64;100.00;99210.03;109016;1253;71217;-53
2023/11/12 02:00:45;;;;;;;1.00;0.60;;;;;;;9.64;100.00;99208.44;108889;1253;61726;-54
2023/11/12 02:03:15;;;;;;;0.70;0.50;;;;;;;9.63;100.00;99205.59;108964;1252;58833;-53
2023/11/12 02:05:43;;;;;;;0.80;0.50;;;;;;;9.63;100.00;99205.98;108834;1253;72984;-54
2023/11/12 02:08:10;;;;;;;1.40;0.40;;;;;;;9.64;100.00;99203.96;108904;1256;65532;-53
2023/11/12 02:10:37;;;;;;;0.60;0.30;;;;;;;9.62;100.00;99202.59;108935;1253;71924;-53
2023/11/12 02:13:06;;;;;;;0.70;0.40;;;;;;;9.61;100.00;99201.77;108995;1253;60771;-57
2023/11/12 02:15:34;;;;;;;1.20;0.30;;;;;;;9.60;100.00;99205.80;108911;1253;60177;-52
2023/11/12 02:18:02;;;;;;;0.40;0.30;;;;;;;9.59;100.00;99200.45;108972;1256;73104;-54
2023/11/12 02:20:30;;;;;;;0.30;0.30;;;;;;;9.58;100.00;99200.69;108948;1253;65685;-53
2023/11/12 02:22:57;;;;;;;0.30;0.30;;;;;;;9.56;100.00;99197.92;108864;1253;72717;-57
2023/11/12 02:25:25;;;;;;;0.10;0.10;;;;;;;9.54;100.00;99197.84;108860;1255;61763;-53
2023/11/12 02:27:52;;;;;;;0.30;0.20;;;;;;;9.52;100.00;99196.52;108982;1253;58979;-54
2023/11/12 02:30:20;;;;;;;0.20;0.20;;;;;;;9.50;100.00;99193.78;108986;1253;72883;-53
2023/11/12 02:32:48;;;;;;;0.20;0.20;;;;;;;9.47;100.00;99194.82;109143;1252;66832;-54
2023/11/12 02:35:16;;;;;;;1.20;0.20;;;;;;;9.42;100.00;99189.34;108731;1253;72348;-52
2023/11/12 02:37:44;;;;;;;0.30;0.30;;;;;;;9.42;100.00;99192.24;109059;1252;61042;-55
2023/11/12 02:40:12;;;;;;;0.30;0.20;;;;;;;9.41;100.00;99189.21;109091;1253;59107;-56
2023/11/12 02:42:39;;;;;;;0.20;0.20;;;;;;;9.41;100.00;99187.60;108992;1253;73913;-54
2023/11/12 02:45:10;;;;;;;0.20;0.20;;;;;;;9.41;100.00;99189.58;108945;1253;66183;-53
2023/11/12 02:47:38;;;;;;;0.20;0.20;;;;;;;9.41;100.00;99197.64;109097;1253;73632;-55
2023/11/12 02:50:27;;;;;;;0.20;0.10;;;;;;;9.41;100.00;99189.23;108932;1252;60922;-54
2023/11/12 02:52:56;;;;;;;0.10;0.10;;;;;;;9.39;100.00;99214.02;109034;1253;60089;-53
2023/11/12 02:55:24;;;;;;;0.20;0.10;;;;;;;9.37;100.00;99193.36;108811;1253;73164;-55
2023/11/12 02:57:52;;;;;;;0.10;0.10;;;;;;;9.36;100.00;99188.41;105128;1258;67159;-56
2023/11/12 03:00:20;;;;;;;0.10;0.10;;;;;;;9.35;100.00;99186.33;105607;1253;72755;-56
2023/11/12 03:02:47;;;;;;;0.70;0.20;;;;;;;9.35;100.00;99186.89;105349;1253;63787;-56
2023/11/12 03:05:15;;;;;;;0.60;0.20;;;;;;;9.35;100.00;99185.28;105275;1257;60479;-55
2023/11/12 03:07:42;;;;;;;0.30;0.10;;;;;;;9.34;100.00;99182.98;105129;1258;76297;-56
2023/11/12 03:10:10;;;;;;;0.20;0.20;;;;;;;9.34;100.00;99184.41;105284;1257;66858;-55
2023/11/12 03:12:38;;;;;;;0.10;0.10;;;;;;;9.34;100.00;99187.29;105220;1258;73187;-56
2023/11/12 03:15:06;;;;;;;0.10;0.10;;;;;;;9.32;100.00;99184.00;105474;1258;60639;-53
2023/11/12 03:20:36;;;;;;;0.10;0.10;;;;;;;9.24;100.00;99220.18;102358;1290;602348;-55
2023/11/12 03:23:03;;;;;;;1.90;0.10;;;;;;;9.24;100.00;99354.33;104610;1271;60799;-54
2023/11/12 03:25:31;;;;;;;0.10;0.00;;;;;;;9.22;100.00;99318.61;104538;1266;60169;-55
2023/11/12 03:27:59;;;;;;;1.50;0.10;;;;;;;9.20;100.00;99297.55;104621;1271;70348;-56
2023/11/12 03:30:26;;;;;;;0.10;0.10;;;;;;;9.19;100.00;99280.60;106609;1256;67248;-54
2023/11/12 03:32:54;;;;;;;0.20;0.20;;;;;;;9.18;100.00;99270.66;105576;1259;71543;-55
2023/11/12 03:35:21;;;;;;;0.10;0.10;;;;;;;9.17;100.00;99260.85;103229;1253;3278893;-55
2023/11/12 03:37:49;;;;;;;0.20;0.20;;;;;;;9.15;100.00;99252.02;105478;1254;59251;-56
2023/11/12 03:40:16;;;;;;;0.10;0.10;;;;;;;9.12;100.00;99242.81;105602;1256;59401;-55
2023/11/12 03:42:43;;;;;;;0.00;0.00;;;;;;;9.10;100.00;99238.09;105550;1253;66755;-55
2023/11/12 03:45:11;;;;;;;0.10;0.10;;;;;;;9.09;100.00;99229.20;105434;1253;72926;-54
2023/11/12 03:47:39;;;;;;;0.00;0.00;;;;;;;9.07;100.00;99227.66;105521;1254;60491;-54
2023/11/12 03:50:06;;;;;;;0.10;0.10;;;;;;;9.04;100.00;99221.37;105559;1254;60098;-54
2023/11/12 03:52:34;;;;;;;0.10;0.10;;;;;;;9.02;100.00;99217.05;105526;1252;71867;-54
2023/11/12 03:55:03;;;;;;;0.10;0.10;;;;;;;9.00;100.00;99209.08;105498;1253;67586;-54
2023/11/12 03:57:30;;;;;;;1.60;0.20;;;;;;;8.98;100.00;99208.83;105538;1259;72440;-53
2023/11/12 03:59:58;;;;;;;0.10;0.10;;;;;;;8.95;100.00;99205.41;105492;1257;61726;-55
2023/11/12 04:02:26;;;;;;;0.10;0.10;;;;;;;8.92;100.00;99203.93;105615;1251;60291;-54
2023/11/12 04:04:53;;;;;;;0.10;0.10;;;;;;;8.91;100.00;99197.20;105601;1253;72284;-55
2023/11/12 04:07:23;;;;;;;0.10;0.10;;;;;;;8.89;100.00;99194.60;105430;1259;65862;-54
2023/11/12 04:09:51;;;;;;;1.80;0.10;;;;;;;8.88;100.00;99200.02;107444;1256;71441;-56
2023/11/12 04:12:18;;;;;;;0.40;0.30;;;;;;;8.88;100.00;99192.69;105266;1259;60566;-54
2023/11/12 04:14:45;;;;;;;0.20;0.20;;;;;;;8.87;100.00;99197.36;105386;1257;59643;-55
2023/11/12 04:17:13;;;;;;;0.20;0.20;;;;;;;8.86;100.00;99194.55;105277;1254;71877;-54
2023/11/12 04:19:40;;;;;;;0.10;0.10;;;;;;;8.85;100.00;99195.89;105496;1259;66932;-54
2023/11/12 04:22:08;;;;;;;0.20;0.20;;;;;;;8.84;100.00;99190.77;105472;1256;72816;-54
2023/11/12 04:24:35;;;;;;;0.20;0.20;;;;;;;8.83;100.00;99191.52;105295;1258;61860;-55
2023/11/12 04:27:03;;;;;;;0.20;0.20;;;;;;;8.80;100.00;99188.07;105275;1256;59992;-54
2023/11/12 04:29:30;;;;;;;0.20;0.20;;;;;;;8.79;100.00;99190.30;105373;1259;71786;-55
2023/11/12 04:31:58;;;;;;;0.10;0.10;;;;;;;8.78;100.00;99188.88;105206;1258;67177;-55
2023/11/12 04:34:25;;;;;;;0.20;0.20;;;;;;;8.77;100.00;99183.95;105403;1257;72920;-55
2023/11/12 04:36:56;;;;;;;0.20;0.10;;;;;;;8.74;100.00;99183.56;105273;1259;60462;-56
2023/11/12 04:39:23;;;;;;;0.10;0.10;;;;;;;8.71;100.00;99182.98;105331;1253;60099;-55
2023/11/12 04:41:50;;;;;;;0.20;0.10;;;;;;;8.67;100.00;99175.85;105383;1259;72717;-56
2023/11/12 04:44:18;;;;;;;0.10;0.10;;;;;;;8.62;100.00;99172.86;105452;1253;67438;-56
2023/11/12 04:46:46;;;;;;;0.10;0.10;;;;;;;8.60;100.00;99174.73;108904;1255;71426;-56
2023/11/12 04:49:13;;;;;;;0.00;0.00;;;;;;;8.58;100.00;99172.56;105486;1254;60663;-55
2023/11/12 04:51:41;;;;;;;0.10;0.10;;;;;;;8.57;100.00;99170.11;105207;1258;59899;-54
2023/11/12 04:54:08;;;;;;;0.20;0.20;;;;;;;8.56;100.00;99174.21;105385;1254;71349;-54
2023/11/12 04:56:35;;;;;;;0.20;0.20;;;;;;;8.57;100.00;99178.33;105263;1253;67031;-54
2023/11/12 04:59:03;;;;;;;0.10;0.10;;;;;;;8.57;100.00;99177.96;105201;1260;71520;-55
2023/11/12 05:01:30;;;;;;;0.20;0.10;;;;;;;8.58;100.00;99173.65;105372;1253;59808;-55
2023/11/12 05:03:58;;;;;;;0.20;0.20;;;;;;;8.56;100.00;99172.46;105319;1255;60290;-56
2023/11/12 05:06:28;;;;;;;0.20;0.20;;;;;;;8.55;100.00;99174.14;108903;1258;73225;-56
2023/11/12 05:08:55;;;;;;;0.10;0.10;;;;;;;8.53;100.00;99178.67;108917;1258;65720;-56
2023/11/12 05:11:24;;;;;;;0.20;0.10;;;;;;;8.53;100.00;99191.39;109110;1253;72731;-55
2023/11/12 05:13:51;;;;;;;0.20;0.20;;;;;;;8.53;100.00;99198.55;108944;1253;60610;-57
2023/11/12 05:16:19;;;;;;;0.20;0.20;;;;;;;8.52;100.00;99196.62;109190;1253;60104;-56
2023/11/12 05:18:46;;;;;;;0.20;0.10;;;;;;;8.53;100.00;99195.48;108953;1253;73526;-56
2023/11/12 05:21:14;;;;;;;1.90;0.20;;;;;;;8.54;100.00;99197.24;109016;1254;65540;-57
2023/11/12 05:23:42;;;;;;;0.20;0.20;;;;;;;8.55;100.00;99198.64;109078;1253;72741;-57
2023/11/12 05:26:09;;;;;;;0.20;0.20;;;;;;;8.55;100.00;99196.31;108869;1255;62174;-56
2023/11/12 05:28:37;;;;;;;0.10;0.10;;;;;;;8.54;100.00;99197.05;109058;1256;58899;-56
2023/11/12 05:31:04;;;;;;;1.50;0.20;;;;;;;8.56;100.00;99201.45;108986;1254;74018;-57
2023/11/12 05:33:32;;;;;;;0.10;0.10;;;;;;;8.56;100.00;99206.98;108968;1258;65507;-56
2023/11/12 05:35:59;;;;;;;0.20;0.20;;;;;;;8.57;100.00;99207.99;108968;1253;71796;-55
2023/11/12 05:38:26;;;;;;;0.30;0.30;;;;;;;8.57;100.00;99205.34;108981;1253;61668;-56
2023/11/12 05:40:54;;;;;;;0.30;0.30;;;;;;;8.58;100.00;99210.66;109123;1253;58819;-56
2023/11/12 05:43:21;;;;;;;0.80;0.30;;;;;;;8.58;100.00;99213.69;108839;1255;71897;-56
2023/11/12 05:45:49;;;;;;;0.20;0.20;;;;;;;8.57;100.00;99219.10;109038;1253;68040;-57
2023/11/12 05:48:16;;;;;;;0.20;0.20;;;;;;;8.56;100.00;99220.38;108486;1256;71429;-57
2023/11/12 05:50:45;;;;;;;0.20;0.10;;;;;;;8.56;100.00;99220.77;105376;1258;60828;-57
2023/11/12 05:53:12;;;;;;;0.20;0.20;;;;;;;8.56;100.00;99228.06;106038;1258;59572;-55
2023/11/12 05:55:40;;;;;;;0.10;0.10;;;;;;;8.56;100.00;99231.48;105505;1256;71925;-56
2023/11/12 05:58:07;;;;;;;0.80;0.10;;;;;;;8.55;100.00;99231.02;105331;1255;70840;-56
2023/11/12 06:00:35;;;;;;;0.60;0.10;;;;;;;8.54;100.00;99236.22;105452;1255;72509;-55
2023/11/12 06:03:02;;;;;;;0.10;0.10;;;;;;;8.53;100.00;99238.94;109197;1255;60497;-57
2023/11/12 06:05:30;;;;;;;0.20;0.20;;;;;;;8.52;100.00;99240.41;107049;1254;59731;-56
2023/11/12 06:07:57;;;;;;;0.40;0.20;;;;;;;8.52;100.00;99241.52;105499;1260;73302;-56
2023/11/12 06:10:28;;;;;;;0.30;0.20;;;;;;;8.50;100.00;99242.16;105617;1254;66176;-56
2023/11/12 06:12:56;;;;;;;0.20;0.10;;;;;;;8.48;100.00;99247.98;105437;1258;71420;-56
2023/11/12 06:15:26;;;;;;;0.30;0.10;;;;;;;8.46;100.00;99242.51;107027;1253;60478;-53
2023/11/12 06:17:54;;;;;;;0.20;0.10;;;;;;;8.45;100.00;99246.30;109015;1253;57846;-57
2023/11/12 06:20:23;;;;;;;0.10;0.10;;;;;;;8.45;100.00;99243.13;105718;1257;72938;-54
2023/11/12 06:22:51;;;;;;;1.10;0.10;;;;;;;8.45;100.00;99243.48;105514;1257;65935;-55
2023/11/12 06:25:18;;;;;;;0.10;0.10;;;;;;;8.44;100.00;99242.23;105454;1257;71992;-54
2023/11/12 06:27:47;;;;;;;0.10;0.10;;;;;;;8.45;100.00;99242.04;105581;1254;62195;-54
2023/11/12 06:30:15;;;;;;;1.40;0.00;;;;;;;8.45;100.00;99246.66;106822;1259;59614;-54
2023/11/12 06:32:43;;;;;;;0.10;0.00;;;;;;;8.46;100.00;99250.73;105454;1259;73070;-56
2023/11/12 06:35:10;;;;;;;0.00;0.00;;;;;;;8.46;100.00;99251.98;105489;1259;66973;-55
2023/11/12 06:37:38;;;;;;;0.00;0.00;;;;;;;8.47;100.00;99258.75;105554;1255;73162;-54
2023/11/12 06:40:08;;;;;;;0.00;0.00;;;;;;;8.47;100.00;99261.98;105555;1258;61165;-51
2023/11/12 06:42:36;;;;;;;0.20;0.00;;;;;;;8.47;100.00;99269.85;106623;1255;59221;-55
2023/11/12 06:45:04;;;;;;;0.10;0.10;;;;;;;8.44;100.00;99263.70;105392;1257;73139;-55
2023/11/12 06:47:31;;;;;;;0.00;0.00;;;;;;;8.44;100.00;99266.92;105475;1259;65687;-56
2023/11/12 06:49:59;;;;;;;0.10;0.00;;;;;;;8.45;100.00;99270.64;105155;1257;72449;-56
2023/11/12 06:52:26;;;;;;;0.10;0.10;;;;;;;8.44;100.00;99271.04;104903;1255;60504;-55
2023/11/12 06:54:53;;;;;;;0.10;0.10;;;;;;;8.44;100.00;99270.48;104961;1256;59642;-56
2023/11/12 06:57:21;;;;;;;0.10;0.10;;;;;;;8.44;100.00;99275.68;104946;1254;73056;-54
2023/11/12 06:59:48;;;;;;;0.70;0.00;;;;;;;8.45;100.00;99275.30;105271;1259;67045;-56
2023/11/12 07:02:16;;;;;;;0.10;0.00;;;;;;;8.44;100.00;99276.20;105134;1259;71785;-58
2023/11/12 07:04:43;;;;;;;0.00;0.00;;;;;;;8.44;100.00;99278.70;104855;1257;60673;-56
2023/11/12 07:07:12;;;;;;;0.00;0.00;;;;;;;8.46;100.00;99281.52;105319;1254;61989;-57
2023/11/12 07:09:45;;;;;;;0.00;0.00;;;;;;;8.48;100.00;99291.23;106747;1259;72168;-55
2023/11/12 07:12:16;;;;;;;0.10;0.10;;;;;;;8.50;100.00;99293.85;108326;1256;66584;-56
2023/11/12 07:14:44;;;;;;;0.10;0.10;;;;;;;8.51;100.00;99299.13;105369;1255;73100;-57
2023/11/12 07:17:11;;;;;;;0.20;0.10;;;;;;;8.50;100.00;99300.27;105429;1253;61744;-55
2023/11/12 07:19:42;;;;;;;0.10;0.10;;;;;;;8.49;100.00;99300.84;105386;1269;59669;-55
2023/11/12 07:22:09;;;;;;;0.10;0.10;;;;;;;8.49;100.00;99305.30;104969;1254;71895;-55
2023/11/12 07:24:37;;;;;;;0.20;0.10;;;;;;;8.49;100.00;99306.22;105024;1260;67751;-55
2023/11/12 07:27:05;;;;;;;0.90;0.20;;;;;;;8.48;100.00;99308.95;105419;1255;71408;-53
2023/11/12 07:29:32;;;;;;;0.20;0.20;;;;;;;8.46;100.00;99309.73;105237;1257;62509;-54
2023/11/12 07:31:59;;;;;;;0.50;0.20;;;;;;;8.45;100.00;99312.30;105149;1255;60388;-55
2023/11/12 07:34:27;;;;;;;0.30;0.20;;;;;;;8.44;100.00;99311.99;104534;1259;72799;-52
2023/11/12 07:36:54;;;;;;;0.60;0.20;;;;;;;8.42;100.00;99315.51;104839;1261;67059;-56
2023/11/12 07:39:22;;;;;;;0.30;0.30;;;;;;;8.40;100.00;99315.77;104924;1260;72462;-55
2023/11/12 07:41:51;;;;;;;0.30;0.10;;;;;;;8.39;100.00;99314.75;104778;1255;62582;-56
2023/11/12 07:44:22;;;;;;;0.20;0.10;;;;;;;8.40;100.00;99327.92;105668;1258;60554;-56
2023/11/12 07:46:49;;;;;;;0.20;0.20;;;;;;;8.40;100.00;99329.35;104925;1259;74325;-57
2023/11/12 07:49:17;;;;;;;0.10;0.10;;;;;;;8.39;100.00;99329.59;105268;1259;65849;-56
2023/11/12 07:51:48;;;;;;;1.50;0.10;;;;;;;8.38;100.00;99331.58;105090;1259;73148;-55
2023/11/12 07:54:16;;;;;;;0.10;0.10;;;;;;;8.39;100.00;99344.40;109115;1253;62889;-57
2023/11/12 07:56:44;;;;;;;0.10;0.10;;;;;;;8.40;100.00;99341.67;109154;1251;60064;-57
2023/11/12 07:59:11;;;;;;;0.10;0.10;;;;;;;8.41;100.00;99343.23;109007;1254;74093;-57
2023/11/12 08:01:39;;;;;;;0.90;0.10;;;;;;;8.41;100.00;99346.46;109037;1257;65821;-57
2023/11/12 08:04:08;;;;;;;0.20;0.10;;;;;;;8.42;100.00;99349.27;109011;1254;72704;-58
2023/11/12 08:06:36;;;;;;;0.10;0.10;;;;;;;8.41;100.00;99353.98;109155;1253;62243;-56
2023/11/12 08:09:04;;;;;;;0.10;0.10;;;;;;;8.40;100.00;99353.66;108995;1252;60474;-59
2023/11/12 08:11:38;;;;;;;0.20;0.10;;;;;;;8.41;100.00;99362.05;109014;1254;73859;-57
2023/11/12 08:14:05;;;;;;;0.10;0.00;;;;;;;8.42;100.00;99375.03;108998;1257;67178;-58
2023/11/12 08:16:34;;;;;;;0.10;0.00;;;;;;;8.44;100.00;99375.30;109096;1254;72783;-58
2023/11/12 08:19:01;;;;;;;0.00;0.00;;;;;;;8.45;100.00;99376.86;108907;1254;60771;-57
2023/11/12 08:21:29;;;;;;;0.00;0.00;;;;;;;8.44;100.00;99383.84;109220;1254;58207;-57
2023/11/12 08:23:56;;;;;;;0.20;0.10;;;;;;;8.45;100.00;99384.54;109216;1253;72574;-58
2023/11/12 08:26:23;;;;;;;0.20;0.00;;;;;;;8.45;100.00;99389.55;109136;1254;65778;-57
2023/11/12 08:28:53;;;;;;;0.00;0.00;;;;;;;8.45;100.00;99397.79;109189;1254;72088;-57
2023/11/12 08:31:20;;;;;;;0.00;0.00;;;;;;;8.43;100.00;99400.37;109113;1258;60768;-57
2023/11/12 08:33:48;;;;;;;0.10;0.10;;;;;;;8.43;100.00;99397.85;109116;1251;58631;-57
2023/11/12 08:36:15;;;;;;;1.70;0.00;;;;;;;8.43;100.00;99402.86;109051;1252;73779;-57
2023/11/12 08:38:42;;;;;;;1.30;0.00;;;;;;;8.43;100.00;99399.13;105852;1260;67065;-55
2023/11/12 08:41:12;;;;;;;0.00;0.00;;;;;;;8.44;100.00;99406.75;105413;1259;71486;-55
2023/11/12 08:43:44;;;;;;;0.00;0.00;;;;;;;8.45;100.00;99415.11;106171;1252;61788;-55
2023/11/12 08:46:13;;;;;;;0.10;0.00;;;;;;;8.47;100.00;99419.34;105517;1257;60423;-55
2023/11/12 08:48:44;;;;;;;0.10;0.10;;;;;;;8.47;100.00;99420.04;108064;1256;73826;-53
2023/11/12 08:51:12;;;;;;;0.10;0.10;;;;;;;8.48;100.00;99426.80;105463;1254;67426;-55
2023/11/12 08:53:40;;;;;;;1.90;0.00;;;;;;;8.49;100.00;99425.13;105220;1259;72029;-56
2023/11/12 08:56:07;;;;;;;0.00;0.00;;;;;;;8.51;100.00;99431.30;105327;1260;61760;-55
2023/11/12 08:58:35;;;;;;;0.10;0.00;;;;;;;8.50;100.00;99435.11;105359;1268;60552;-56
2023/11/12 09:01:04;;;;;;;0.10;0.00;;;;;;;8.51;100.00;99438.08;105498;1258;73266;-57
2023/11/12 09:03:31;;;;;;;0.40;0.10;;;;;;;8.52;100.00;99443.58;105536;1257;65800;-56
2023/11/12 09:05:59;;;;;;;0.20;0.00;;;;;;;8.53;100.00;99446.39;105351;1259;71494;-57
2023/11/12 09:08:26;;;;;;;0.00;0.00;;;;;;;8.54;100.00;99450.31;105244;1259;60479;-57
2023/11/12 09:10:54;;;;;;;0.10;0.10;;;;;;;8.53;100.00;99457.84;105295;1260;63370;-54
2023/11/12 09:13:21;;;;;;;0.10;0.00;;;;;;;8.54;100.00;99460.46;105423;1259;73864;-57
2023/11/12 09:15:49;;;;;;;0.20;0.10;;;;;;;8.54;100.00;99462.98;105479;1263;67958;-58
2023/11/12 09:18:19;;;;;;;0.10;0.00;;;;;;;8.55;100.00;99468.48;106380;1254;72027;-56
2023/11/12 09:20:46;;;;;;;0.10;0.10;;;;;;;8.57;100.00;99471.83;105513;1258;61678;-57
2023/11/12 09:23:14;;;;;;;0.10;0.00;;;;;;;8.56;100.00;99474.36;105621;1257;60370;-56
2023/11/12 09:25:41;;;;;;;0.20;0.10;;;;;;;8.57;100.00;99475.58;105370;1256;72608;-58
2023/11/12 09:28:09;;;;;;;0.20;0.10;;;;;;;8.57;100.00;99484.31;105409;1261;65671;-58
2023/11/12 09:30:37;;;;;;;0.10;0.00;;;;;;;8.59;100.00;99493.54;105360;1254;71084;-58
2023/11/12 09:33:23;;;;;;;0.10;0.10;;;;;;;8.60;100.00;99517.42;105340;1252;60611;-55
2023/11/12 09:35:51;;;;;;;0.10;0.10;;;;;;;8.61;100.00;99505.94;106860;1254;60542;-56
2023/11/12 09:38:19;;;;;;;0.00;0.00;;;;;;;8.61;100.00;99505.05;105043;1254;73031;-56
2023/11/12 09:40:47;;;;;;;0.00;0.00;;;;;;;8.61;100.00;99509.89;105831;1257;66315;-55
2023/11/12 09:43:14;;;;;;;0.00;0.00;;;;;;;8.62;100.00;99515.21;104671;1254;72793;-55
2023/11/12 09:45:44;;;;;;;0.10;0.10;;;;;;;8.64;100.00;99521.21;104995;1254;61695;-55
2023/11/12 09:48:31;;;;;;;0.30;0.10;;;;;;;8.65;100.00;99526.36;105926;1258;58845;-57
2023/11/12 09:50:58;;;;;;;3.60;0.10;;;;;;;8.67;100.00;99553.27;108753;1254;72556;-55
2023/11/12 09:53:27;;;;;;;0.20;0.10;;;;;;;8.69;100.00;99538.50;105350;1258;65773;-56
2023/11/12 09:55:57;;;;;;;0.20;0.10;;;;;;;8.69;100.00;99542.97;106317;1258;72730;-56
2023/11/12 09:58:24;;;;;;;0.10;0.10;;;;;;;8.66;100.00;99539.91;105473;1258;61686;-56
2023/11/12 10:00:52;;;;;;;0.10;0.10;;;;;;;8.66;100.00;99536.35;105295;1257;60526;-55
2023/11/12 10:03:20;;;;;;;0.20;0.10;;;;;;;8.66;100.00;99540.26;105036;1264;73931;-57
2023/11/12 10:05:47;;;;;;;0.10;0.10;;;;;;;8.67;100.00;99546.12;105379;1260;65682;-57
2023/11/12 10:08:15;;;;;;;0.10;0.10;;;;;;;8.68;100.00;99545.89;105446;1258;70509;-54
2023/11/12 10:10:42;;;;;;;0.60;0.20;;;;;;;8.71;100.00;99553.46;105341;1257;60744;-55
2023/11/12 10:13:12;;;;;;;0.10;0.10;;;;;;;8.71;100.00;99554.52;105141;1260;59338;-55
2023/11/12 10:15:39;;;;;;;0.10;0.10;;;;;;;8.71;100.00;99563.65;105366;1253;73919;-56
2023/11/12 10:18:07;;;;;;;0.30;0.10;;;;;;;8.73;100.00;99567.85;105329;1256;65611;-56
2023/11/12 10:20:39;;;;;;;0.10;0.10;;;;;;;8.75;100.00;99575.66;105170;1258;72724;-56
2023/11/12 10:23:19;;;;;;;0.10;0.10;;;;;;;8.73;100.00;99584.52;105357;1259;60461;-57
2023/11/12 10:25:59;;;;;;;0.10;0.10;;;;;;;8.70;100.00;99613.05;108952;1253;59439;-56
2023/11/12 10:28:32;;;;;;;0.60;0.10;;;;;;;8.68;100.00;99590.79;107781;1257;73819;-55
2023/11/12 10:31:00;;;;;;;0.10;0.10;;;;;;;8.67;100.00;99601.96;108924;1254;66639;-54
2023/11/12 10:33:28;;;;;;;0.10;0.10;;;;;;;8.67;100.00;99594.44;107277;1257;71480;-54
2023/11/12 10:35:56;;;;;;;0.20;0.10;;;;;;;8.67;100.00;99600.70;105321;1254;60484;-54
2023/11/12 10:38:23;;;;;;;0.10;0.10;;;;;;;8.66;100.00;99597.71;105218;1257;62251;-57
2023/11/12 10:41:04;;;;;;;0.10;0.10;;;;;;;8.63;100.00;99599.61;108923;1254;72677;-57
2023/11/12 10:43:33;;;;;;;2.00;0.30;;;;;;;8.63;100.00;99621.62;108907;1254;65399;-58
2023/11/12 10:46:04;;;;;;;0.20;0.20;;;;;;;8.64;100.00;99616.20;105498;1251;72734;-56
2023/11/12 10:48:33;;;;;;;0.20;0.10;;;;;;;8.66;100.00;99622.35;105397;1254;60555;-56
2023/11/12 10:51:07;;;;;;;0.20;0.10;;;;;;;8.69;100.00;99626.89;109115;1253;58806;-56
2023/11/12 10:53:36;;;;;;;0.20;0.10;;;;;;;8.70;100.00;99636.67;109032;1254;73973;-54
2023/11/12 10:56:05;;;;;;;0.10;0.10;;;;;;;8.71;100.00;99641.30;109065;1254;67230;-56
2023/11/12 10:58:34;;;;;;;0.10;0.10;;;;;;;8.71;100.00;99648.27;109009;1254;74639;-55
2023/11/12 11:01:05;;;;;;;0.10;0.10;;;;;;;8.71;100.00;99650.94;109069;1254;62326;-56
2023/11/12 11:03:35;;;;;;;0.10;0.10;;;;;;;8.70;100.00;99660.44;109025;1252;61381;-56
2023/11/12 11:06:07;;;;;;;0.10;0.10;;;;;;;8.71;100.00;99657.91;109040;1257;75265;-56
2023/11/12 11:08:36;;;;;;;1.00;0.10;;;;;;;8.72;100.00;99670.05;108974;1254;67734;-56
2023/11/12 11:11:07;;;;;;;0.10;0.10;;;;;;;8.71;100.00;99672.98;109034;1254;71457;-57
2023/11/12 11:13:38;;;;;;;0.20;0.10;;;;;;;8.70;100.00;99679.05;108965;1254;62923;-57
2023/11/12 11:16:07;;;;;;;0.60;0.10;;;;;;;8.71;100.00;99683.34;109023;1254;62485;-55
2023/11/12 11:18:49;;;;;;;0.10;0.10;;;;;;;8.71;100.00;99689.05;109096;1254;73815;-56
2023/11/12 11:21:18;;;;;;;0.20;0.10;;;;;;;8.73;100.00;99710.79;109088;1254;65829;-56
2023/11/12 11:23:51;;;;;;;0.20;0.20;;;;;;;8.74;100.00;99706.12;109040;1253;74966;-54
2023/11/12 11:26:39;;;;;;;0.30;0.20;;;;;;;8.75;100.00;99712.72;109019;1257;63443;-55
2023/11/12 11:29:09;;;;;;;0.70;0.20;;;;;;;8.74;100.00;99734.73;108984;1254;60909;-60
2023/11/12 11:31:47;;;;;;;0.20;0.20;;;;;;;8.73;100.00;99728.31;105645;1254;74995;-54
2023/11/12 11:34:15;;;;;;;0.20;0.20;;;;;;;8.75;100.00;99739.20;105357;1254;68825;-55